Wetterdaten: Woche 10.07.23 - 16.07.23 (KW28)
Datum Zeit Temp. Aussen Temp. o. S. Temp +5cm Feuchte Auss Luftdruck Regen Sonnenschein Regendauer Solar Windben Empfang
10.07.2023 00:00 21,4 C 20,4 C 17,2 C 95 % 1019,5 hPa 0,0 l/m 0,00 h 0,00 h 0 W/m 7,5 km/h (2 Bft) 96,32 %
10.07.2023 01:00 20,9 C 19,8 C 16,7 C 95 % 1019,6 hPa 0,0 l/m 0,00 h 0,00 h 0 W/m 3,7 km/h (1 Bft) 99,43 %
10.07.2023 02:00 20,5 C 19,4 C 16,6 C 96 % 1019,9 hPa 0,0 l/m 0,00 h 0,00 h 0 W/m 7,4 km/h (2 Bft) 95,92 %
10.07.2023 03:00 19,9 C 18,7 C 15,8 C 95 % 1019,8 hPa 0,0 l/m 0,00 h 0,00 h 0 W/m 4,0 km/h (1 Bft) 97,69 %
10.07.2023 04:00 19,8 C 18,9 C 15,9 C 96 % 1020,3 hPa 0,6 l/m 0,00 h 0,13 h 0 W/m 4,4 km/h (1 Bft) 98,98 %
10.07.2023 05:00 19,5 C 18,4 C 14,8 C 96 % 1020,6 hPa 0,4 l/m 0,00 h 0,20 h 4 W/m 5,1 km/h (1 Bft) 96,16 %
10.07.2023 06:00 18,9 C 18,3 C 14,4 C 97 % 1020,9 hPa 0,0 l/m 0,00 h 0,00 h 16 W/m 4,9 km/h (1 Bft) 98,02 %
10.07.2023 07:00 18,9 C 18,5 C 14,5 C 96 % 1021,4 hPa 0,0 l/m 0,00 h 0,00 h 55 W/m 1,4 km/h (1 Bft) 98,08 %
10.07.2023 08:00 19,3 C 20,7 C 15,8 C 93 % 1021,7 hPa 0,0 l/m 0,33 h 0,00 h 188 W/m 6,6 km/h (2 Bft) 95,63 %
10.07.2023 09:00 21,1 C 25,7 C 20,3 C 80 % 1022,0 hPa 0,0 l/m 0,93 h 0,00 h 522 W/m 8,8 km/h (2 Bft) 97,73 %
10.07.2023 10:00 23,0 C 25,6 C 22,4 C 69 % 1022,0 hPa 0,0 l/m 1,00 h 0,00 h 686 W/m 11,8 km/h (2 Bft) 99,08 %
10.07.2023 11:00 24,1 C 26,9 C 24,2 C 65 % 1021,9 hPa 0,0 l/m 1,00 h 0,00 h 800 W/m 12,8 km/h (3 Bft) 96,85 %
10.07.2023 12:00 25,4 C 29,2 C 27,5 C 62 % 1021,8 hPa 0,0 l/m 1,00 h 0,00 h 888 W/m 12,5 km/h (3 Bft) 97,54 %
10.07.2023 13:00 26,7 C 31,3 C 24,8 C 58 % 1021,7 hPa 0,0 l/m 1,00 h 0,00 h 964 W/m 13,9 km/h (3 Bft) 95,00 %
10.07.2023 14:00 27,2 C 31,6 C 24,1 C 55 % 1021,6 hPa 0,0 l/m 0,90 h 0,00 h 894 W/m 14,9 km/h (3 Bft) 98,65 %
10.07.2023 15:00 27,5 C 31,0 C 23,0 C 54 % 1021,3 hPa 0,0 l/m 0,87 h 0,00 h 747 W/m 12,7 km/h (3 Bft) 96,70 %
10.07.2023 16:00 27,4 C 30,6 C 23,1 C 53 % 1021,1 hPa 0,0 l/m 0,77 h 0,00 h 670 W/m 11,5 km/h (2 Bft) 97,84 %
10.07.2023 17:00 27,9 C 31,4 C 23,7 C 51 % 1020,6 hPa 0,0 l/m 0,87 h 0,00 h 583 W/m 10,0 km/h (2 Bft) 97,53 %
10.07.2023 18:00 27,9 C 31,6 C 23,8 C 51 % 1020,1 hPa 0,0 l/m 0,83 h 0,00 h 385 W/m 8,2 km/h (2 Bft) 97,75 %
10.07.2023 19:00 27,6 C 29,0 C 22,8 C 51 % 1019,7 hPa 0,0 l/m 0,97 h 0,00 h 237 W/m 5,5 km/h (1 Bft) 97,41 %
10.07.2023 20:00 26,4 C 25,2 C 21,2 C 58 % 1019,5 hPa 0,0 l/m 0,03 h 0,00 h 67 W/m 2,1 km/h (1 Bft) 99,41 %
10.07.2023 21:00 24,8 C 23,0 C 19,0 C 66 % 1019,2 hPa 0,0 l/m 0,00 h 0,00 h 15 W/m 0,0 km/h (0 Bft) 95,44 %
10.07.2023 22:00 22,8 C 21,3 C 17,7 C 73 % 1019,0 hPa 0,0 l/m 0,00 h 0,00 h 0 W/m 0,3 km/h (0 Bft) 98,64 %
10.07.2023 23:00 22,2 C 21,3 C 18,1 C 71 % 1018,7 hPa 0,0 l/m 0,00 h 0,00 h 0 W/m 1,1 km/h (0 Bft) 98,89 %
11.07.2023 00:00 21,8 C 20,5 C 17,4 C 70 % 1018,4 hPa 0,0 l/m 0,00 h 0,00 h 0 W/m 0,8 km/h (0 Bft) 95,17 %
11.07.2023 01:00 20,9 C 19,6 C 16,7 C 73 % 1018,0 hPa 0,0 l/m 0,00 h 0,00 h 0 W/m 2,3 km/h (1 Bft) 98,93 %
11.07.2023 02:00 20,1 C 19,0 C 16,1 C 76 % 1017,5 hPa 0,0 l/m 0,00 h 0,00 h 0 W/m 4,3 km/h (1 Bft) 97,30 %
11.07.2023 03:00 19,5 C 18,4 C 15,7 C 78 % 1017,1 hPa 0,0 l/m 0,00 h 0,00 h 0 W/m 5,0 km/h (1 Bft) 96,79 %
11.07.2023 04:00 18,9 C 17,7 C 15,1 C 81 % 1016,7 hPa 0,0 l/m 0,00 h 0,00 h 0 W/m 5,9 km/h (2 Bft) 98,46 %
11.07.2023 05:00 18,4 C 17,2 C 14,7 C 84 % 1016,3 hPa 0,0 l/m 0,00 h 0,00 h 7 W/m 7,3 km/h (2 Bft) 97,86 %
11.07.2023 06:00 18,2 C 17,4 C 14,5 C 84 % 1015,9 hPa 0,0 l/m 0,00 h 0,00 h 17 W/m 9,6 km/h (2 Bft) 96,61 %
11.07.2023 07:00 18,9 C 18,5 C 15,3 C 83 % 1015,5 hPa 0,0 l/m 0,10 h 0,00 h 55 W/m 12,4 km/h (3 Bft) 97,24 %
11.07.2023 08:00 21,3 C 24,9 C 18,1 C 78 % 1014,9 hPa 0,0 l/m 0,90 h 0,00 h 351 W/m 9,7 km/h (2 Bft) 95,69 %
11.07.2023 09:00 25,1 C 30,3 C 23,9 C 67 % 1014,6 hPa 0,0 l/m 1,00 h 0,00 h 527 W/m 12,2 km/h (2 Bft) 98,02 %
11.07.2023 10:00 27,6 C 29,8 C 25,9 C 58 % 1014,1 hPa 0,0 l/m 1,00 h 0,00 h 691 W/m 16,5 km/h (3 Bft) 98,59 %
11.07.2023 11:00 28,7 C 30,3 C 26,3 C 51 % 1013,6 hPa 0,0 l/m 0,77 h 0,00 h 638 W/m 20,5 km/h (4 Bft) 96,50 %
11.07.2023 12:00 29,9 C 33,2 C 30,5 C 46 % 1013,2 hPa 0,0 l/m 0,95 h 0,00 h 824 W/m 18,4 km/h (3 Bft) 98,16 %
11.07.2023 13:00 31,4 C 35,8 C 28,3 C 46 % 1012,4 hPa 0,0 l/m 1,00 h 0,00 h 930 W/m 19,7 km/h (3 Bft) 98,09 %
11.07.2023 14:00 32,0 C 36,8 C 28,2 C 46 % 1011,7 hPa 0,0 l/m 1,00 h 0,00 h 906 W/m 18,6 km/h (3 Bft) 96,55 %
11.07.2023 15:00 33,0 C 37,3 C 27,8 C 46 % 1010,9 hPa 0,0 l/m 1,00 h 0,00 h 847 W/m 18,3 km/h (3 Bft) 98,88 %
11.07.2023 16:00 33,5 C 37,1 C 27,9 C 45 % 1010,4 hPa 0,0 l/m 1,00 h 0,00 h 739 W/m 17,8 km/h (3 Bft) 96,89 %
11.07.2023 17:00 33,6 C 36,9 C 28,4 C 44 % 1009,8 hPa 0,0 l/m 1,00 h 0,00 h 577 W/m 14,8 km/h (3 Bft) 97,23 %
11.07.2023 18:00 32,7 C 34,7 C 27,7 C 45 % 1009,1 hPa 0,0 l/m 0,83 h 0,00 h 334 W/m 11,6 km/h (2 Bft) 98,16 %
11.07.2023 19:00 32,1 C 33,1 C 26,7 C 48 % 1008,5 hPa 0,0 l/m 0,80 h 0,00 h 237 W/m 8,9 km/h (2 Bft) 95,52 %
11.07.2023 20:00 30,9 C 29,4 C 25,2 C 52 % 1007,5 hPa 0,0 l/m 0,07 h 0,00 h 61 W/m 5,6 km/h (1 Bft) 98,58 %
11.07.2023 21:00 28,9 C 27,1 C 23,3 C 58 % 1007,2 hPa 0,0 l/m 0,00 h 0,00 h 15 W/m 3,0 km/h (1 Bft) 97,37 %
11.07.2023 22:00 27,2 C 25,6 C 21,8 C 64 % 1007,6 hPa 0,0 l/m 0,00 h 0,13 h 0 W/m 2,7 km/h (1 Bft) 96,22 %
11.07.2023 23:00 25,2 C 23,3 C 19,8 C 74 % 1007,8 hPa 0,0 l/m 0,00 h 0,07 h 0 W/m 8,2 km/h (2 Bft) 98,45 %
12.07.2023 00:00 23,0 C 21,9 C 18,7 C 79 % 1008,6 hPa 0,0 l/m 0,00 h 0,00 h 0 W/m 18,0 km/h (3 Bft) 94,85 %
12.07.2023 01:00 21,6 C 20,7 C 17,5 C 76 % 1009,1 hPa 0,0 l/m 0,00 h 0,07 h 0 W/m 13,9 km/h (3 Bft) 95,70 %
12.07.2023 02:00 20,8 C 19,3 C 15,8 C 85 % 1009,2 hPa 0,6 l/m 0,00 h 0,47 h 0 W/m 2,4 km/h (1 Bft) 99,36 %
12.07.2023 03:00 20,0 C 18,9 C 14,6 C 90 % 1009,4 hPa 0,0 l/m 0,00 h 0,00 h 0 W/m 3,3 km/h (1 Bft) 97,23 %
12.07.2023 04:00 19,0 C 17,9 C 13,8 C 91 % 1010,3 hPa 1,0 l/m 0,00 h 0,47 h 0 W/m 14,0 km/h (3 Bft) 111,23 %
12.07.2023 05:00 17,6 C 16,1 C 13,0 C 93 % 1010,4 hPa 2,8 l/m 0,00 h 0,73 h 0 W/m 6,5 km/h (2 Bft) 99,20 %
12.07.2023 06:00 17,1 C 16,2 C 12,8 C 95 % 1010,5 hPa 0,0 l/m 0,00 h 0,10 h 25 W/m 7,4 km/h (2 Bft) 97,40 %
12.07.2023 07:00 17,0 C 16,7 C 12,8 C 96 % 1011,3 hPa 0,0 l/m 0,00 h 0,03 h 33 W/m 12,2 km/h (2 Bft) 97,52 %
12.07.2023 08:00 17,7 C 19,0 C 13,2 C 94 % 1012,1 hPa 0,0 l/m 0,40 h 0,00 h 210 W/m 11,7 km/h (2 Bft) 98,36 %
12.07.2023 09:00 18,7 C 21,0 C 15,3 C 86 % 1012,4 hPa 0,0 l/m 0,63 h 0,00 h 415 W/m 17,7 km/h (3 Bft) 97,93 %
12.07.2023 10:00 20,4 C 22,2 C 18,9 C 76 % 1012,5 hPa 0,0 l/m 0,93 h 0,00 h 712 W/m 20,3 km/h (4 Bft) 95,45 %
12.07.2023 11:00 21,3 C 22,5 C 19,2 C 72 % 1012,7 hPa 0,0 l/m 0,63 h 0,00 h 606 W/m 19,0 km/h (3 Bft) 99,71 %
12.07.2023 12:00 22,6 C 25,7 C 23,4 C 67 % 1012,8 hPa 0,0 l/m 0,97 h 0,00 h 916 W/m 20,2 km/h (4 Bft) 96,84 %
12.07.2023 13:00 23,5 C 26,7 C 21,3 C 63 % 1012,9 hPa 0,0 l/m 0,87 h 0,00 h 843 W/m 18,6 km/h (3 Bft) 98,58 %
12.07.2023 14:00 24,8 C 28,7 C 21,5 C 56 % 1012,9 hPa 0,0 l/m 0,90 h 0,00 h 887 W/m 20,5 km/h (4 Bft) 95,94 %
12.07.2023 15:00 25,3 C 28,8 C 21,2 C 52 % 1012,7 hPa 0,0 l/m 0,97 h 0,00 h 872 W/m 21,3 km/h (4 Bft) 98,93 %
12.07.2023 16:00 25,7 C 28,5 C 21,5 C 51 % 1012,7 hPa 0,0 l/m 0,93 h 0,00 h 730 W/m 19,6 km/h (3 Bft) 98,22 %
12.07.2023 17:00 25,7 C 28,4 C 21,7 C 50 % 1012,6 hPa 0,0 l/m 0,90 h 0,00 h 573 W/m 17,1 km/h (3 Bft) 95,99 %
12.07.2023 18:00 24,9 C 27,0 C 21,1 C 54 % 1012,7 hPa 0,0 l/m 0,68 h 0,00 h 331 W/m 14,5 km/h (3 Bft) 98,06 %
12.07.2023 19:00 24,4 C 24,5 C 19,9 C 58 % 1012,9 hPa 0,0 l/m 0,20 h 0,00 h 132 W/m 15,6 km/h (3 Bft) 98,09 %
12.07.2023 20:00 22,9 C 22,2 C 18,5 C 63 % 1013,3 hPa 0,0 l/m 0,20 h 0,00 h 73 W/m 11,1 km/h (2 Bft) 95,70 %
12.07.2023 21:00 21,7 C 20,4 C 17,0 C 66 % 1013,5 hPa 0,0 l/m 0,00 h 0,00 h 19 W/m 4,2 km/h (1 Bft) 99,57 %
12.07.2023 22:00 20,3 C 18,7 C 15,6 C 72 % 1014,0 hPa 0,0 l/m 0,00 h 0,00 h 0 W/m 1,4 km/h (1 Bft) 97,23 %
12.07.2023 23:00 19,4 C 18,3 C 15,3 C 70 % 1014,5 hPa 0,0 l/m 0,00 h 0,00 h 0 W/m 5,7 km/h (1 Bft) 96,72 %
13.07.2023 00:00 18,4 C 17,3 C 14,4 C 68 % 1014,9 hPa 0,0 l/m 0,00 h 0,00 h 0 W/m 4,4 km/h (1 Bft) 98,68 %
13.07.2023 01:00 17,4 C 16,2 C 13,1 C 72 % 1015,2 hPa 0,0 l/m 0,00 h 0,00 h 0 W/m 3,1 km/h (1 Bft) 96,77 %
13.07.2023 02:00 16,8 C 15,9 C 12,9 C 74 % 1015,4 hPa 0,0 l/m 0,00 h 0,00 h 0 W/m 6,4 km/h (2 Bft) 97,36 %
13.07.2023 03:00 16,4 C 15,3 C 12,5 C 76 % 1015,4 hPa 0,0 l/m 0,00 h 0,00 h 0 W/m 4,4 km/h (1 Bft) 98,43 %
13.07.2023 04:00 15,8 C 14,8 C 12,0 C 79 % 1015,5 hPa 0,0 l/m 0,00 h 0,00 h 0 W/m 4,9 km/h (1 Bft) 97,42 %
13.07.2023 05:00 15,5 C 14,7 C 11,7 C 81 % 1015,7 hPa 0,0 l/m 0,00 h 0,00 h 7 W/m 7,6 km/h (2 Bft) 95,16 %
13.07.2023 06:00 15,4 C 14,7 C 11,8 C 83 % 1016,2 hPa 0,0 l/m 0,00 h 0,00 h 22 W/m 9,8 km/h (2 Bft) 98,19 %
13.07.2023 07:00 15,9 C 15,5 C 12,3 C 83 % 1016,5 hPa 0,0 l/m 0,00 h 0,00 h 53 W/m 11,9 km/h (2 Bft) 97,56 %
13.07.2023 08:00 17,0 C 17,5 C 13,3 C 82 % 1017,1 hPa 0,0 l/m 0,43 h 0,00 h 226 W/m 15,7 km/h (3 Bft) 96,37 %
13.07.2023 09:00 17,8 C 18,1 C 14,5 C 81 % 1017,5 hPa 0,0 l/m 0,27 h 0,00 h 229 W/m 16,0 km/h (3 Bft) 99,08 %
13.07.2023 10:00 19,0 C 19,5 C 16,1 C 78 % 1017,4 hPa 0,0 l/m 0,73 h 0,00 h 373 W/m 16,2 km/h (3 Bft) 95,81 %
13.07.2023 11:00 20,0 C 20,7 C 17,3 C 75 % 1017,5 hPa 0,0 l/m 0,30 h 0,00 h 379 W/m 18,2 km/h (3 Bft) 96,37 %
13.07.2023 12:00 21,7 C 24,1 C 20,9 C 68 % 1017,6 hPa 0,0 l/m 0,70 h 0,00 h 787 W/m 17,5 km/h (3 Bft) 98,79 %
13.07.2023 13:00 23,6 C 26,9 C 20,5 C 61 % 1017,5 hPa 0,0 l/m 0,70 h 0,00 h 719 W/m 19,8 km/h (4 Bft) 96,51 %
13.07.2023 14:00 23,7 C 25,7 C 20,5 C 59 % 1017,3 hPa 0,0 l/m 0,50 h 0,00 h 509 W/m 21,0 km/h (4 Bft) 96,54 %
13.07.2023 15:00 24,0 C 26,2 C 19,9 C 58 % 1017,4 hPa 0,0 l/m 0,77 h 0,10 h 608 W/m 18,0 km/h (3 Bft) 96,87 %
13.07.2023 16:00 23,9 C 24,4 C 19,7 C 59 % 1017,6 hPa 0,0 l/m 0,30 h 0,00 h 338 W/m 16,8 km/h (3 Bft) 97,65 %
13.07.2023 17:00 21,3 C 20,6 C 17,4 C 68 % 1018,0 hPa 0,0 l/m 0,00 h 0,00 h 96 W/m 16,9 km/h (3 Bft) 97,58 %
13.07.2023 18:00 20,7 C 20,2 C 16,8 C 69 % 1017,9 hPa 0,0 l/m 0,03 h 0,00 h 106 W/m 9,1 km/h (2 Bft) 95,12 %
13.07.2023 19:00 21,7 C 22,6 C 17,8 C 63 % 1018,0 hPa 0,0 l/m 0,93 h 0,00 h 217 W/m 10,1 km/h (2 Bft) 99,22 %
13.07.2023 20:00 21,1 C 20,2 C 16,9 C 65 % 1018,2 hPa 0,0 l/m 0,00 h 0,00 h 62 W/m 5,7 km/h (1 Bft) 97,81 %
13.07.2023 21:00 20,0 C 18,5 C 15,3 C 72 % 1018,4 hPa 0,0 l/m 0,00 h 0,00 h 17 W/m 1,2 km/h (1 Bft) 96,46 %
13.07.2023 22:00 18,7 C 16,9 C 13,8 C 78 % 1018,7 hPa 0,0 l/m 0,00 h 0,00 h 0 W/m 0,4 km/h (0 Bft) 98,16 %
13.07.2023 23:00 17,3 C 15,8 C 12,7 C 83 % 1018,7 hPa 0,0 l/m 0,00 h 0,00 h 0 W/m 0,1 km/h (0 Bft) 96,34 %
14.07.2023 00:00 16,6 C 15,7 C 12,6 C 84 % 1018,7 hPa 0,0 l/m 0,00 h 0,00 h 0 W/m 1,5 km/h (1 Bft) 96,38 %
14.07.2023 01:00 16,2 C 15,2 C 12,1 C 84 % 1018,5 hPa 0,0 l/m 0,00 h 0,00 h 0 W/m 0,0 km/h (0 Bft) 98,30 %
14.07.2023 02:00 15,8 C 14,8 C 11,9 C 86 % 1018,1 hPa 0,0 l/m 0,00 h 0,00 h 0 W/m 0,1 km/h (0 Bft) 97,90 %
14.07.2023 03:00 15,6 C 14,7 C 11,9 C 87 % 1017,9 hPa 0,0 l/m 0,00 h 0,00 h 0 W/m 1,6 km/h (1 Bft) 95,31 %
14.07.2023 04:00 15,4 C 14,4 C 11,6 C 87 % 1017,7 hPa 0,0 l/m 0,00 h 0,00 h 0 W/m 2,0 km/h (1 Bft) 96,77 %
14.07.2023 05:00 15,1 C 14,2 C 11,2 C 89 % 1017,6 hPa 0,0 l/m 0,00 h 0,00 h 7 W/m 1,2 km/h (1 Bft) 98,48 %
14.07.2023 06:00 15,4 C 15,0 C 12,0 C 88 % 1017,5 hPa 0,0 l/m 0,00 h 0,00 h 26 W/m 5,9 km/h (2 Bft) 97,90 %
14.07.2023 07:00 16,0 C 15,7 C 12,6 C 87 % 1017,4 hPa 0,0 l/m 0,00 h 0,00 h 53 W/m 4,2 km/h (1 Bft) 96,16 %
14.07.2023 08:00 17,9 C 21,6 C 14,8 C 82 % 1017,2 hPa 0,0 l/m 0,87 h 0,00 h 315 W/m 7,4 km/h (2 Bft) 99,50 %
14.07.2023 09:00 21,1 C 26,1 C 19,2 C 69 % 1016,8 hPa 0,0 l/m 1,00 h 0,00 h 494 W/m 9,0 km/h (2 Bft) 96,72 %
14.07.2023 10:00 22,7 C 24,4 C 19,9 C 66 % 1016,4 hPa 0,0 l/m 0,73 h 0,00 h 447 W/m 9,3 km/h (2 Bft) 96,76 %
14.07.2023 11:00 23,5 C 25,7 C 21,2 C 63 % 1016,0 hPa 0,0 l/m 0,90 h 0,00 h 633 W/m 12,0 km/h (2 Bft) 96,44 %
14.07.2023 12:00 24,8 C 27,2 C 23,2 C 58 % 1015,2 hPa 0,0 l/m 0,83 h 0,00 h 684 W/m 16,1 km/h (3 Bft) 98,08 %
14.07.2023 13:00 26,3 C 29,8 C 23,7 C 54 % 1014,3 hPa 0,0 l/m 0,93 h 0,00 h 811 W/m 13,8 km/h (3 Bft) 97,57 %
14.07.2023 14:00 27,2 C 30,0 C 23,6 C 50 % 1013,4 hPa 0,0 l/m 0,90 h 0,00 h 663 W/m 13,1 km/h (3 Bft) 96,30 %
14.07.2023 15:00 28,3 C 32,4 C 23,7 C 46 % 1012,4 hPa 0,0 l/m 0,97 h 0,00 h 854 W/m 15,5 km/h (3 Bft) 97,94 %
14.07.2023 16:00 29,2 C 32,9 C 24,4 C 43 % 1011,5 hPa 0,0 l/m 1,00 h 0,00 h 801 W/m 16,6 km/h (3 Bft) 97,93 %
14.07.2023 17:00 28,7 C 29,0 C 24,0 C 44 % 1010,4 hPa 0,0 l/m 0,47 h 0,00 h 313 W/m 15,2 km/h (3 Bft) 96,35 %
14.07.2023 18:00 28,1 C 30,1 C 23,5 C 48 % 1009,1 hPa 0,0 l/m 0,70 h 0,00 h 317 W/m 9,9 km/h (2 Bft) 98,30 %
14.07.2023 19:00 28,5 C 29,8 C 23,3 C 47 % 1008,4 hPa 0,0 l/m 0,63 h 0,00 h 221 W/m 10,4 km/h (2 Bft) 98,63 %
14.07.2023 20:00 27,4 C 26,1 C 22,2 C 50 % 1008,0 hPa 0,0 l/m 0,00 h 0,00 h 49 W/m 6,6 km/h (2 Bft) 94,87 %
14.07.2023 21:00 26,2 C 24,5 C 20,5 C 52 % 1007,8 hPa 0,0 l/m 0,00 h 0,00 h 8 W/m 3,7 km/h (1 Bft) 99,36 %
14.07.2023 22:00 24,5 C 23,0 C 19,0 C 54 % 1007,4 hPa 0,0 l/m 0,00 h 0,00 h 0 W/m 3,9 km/h (1 Bft) 96,52 %
14.07.2023 23:00 23,5 C 22,5 C 18,9 C 55 % 1006,9 hPa 0,0 l/m 0,00 h 0,00 h 0 W/m 6,3 km/h (2 Bft) 97,37 %
15.07.2023 00:00 23,0 C 22,2 C 18,5 C 57 % 1006,7 hPa 0,0 l/m 0,00 h 0,00 h 0 W/m 9,5 km/h (2 Bft) 97,83 %
15.07.2023 01:00 22,8 C 21,7 C 18,2 C 58 % 1006,5 hPa 0,0 l/m 0,00 h 0,00 h 0 W/m 11,4 km/h (2 Bft) 97,63 %
15.07.2023 02:00 22,2 C 21,0 C 17,7 C 60 % 1006,2 hPa 0,0 l/m 0,00 h 0,00 h 0 W/m 11,7 km/h (2 Bft) 96,44 %
15.07.2023 03:00 21,4 C 20,4 C 17,2 C 63 % 1006,0 hPa 0,0 l/m 0,00 h 0,00 h 0 W/m 7,1 km/h (2 Bft) 98,72 %
15.07.2023 04:00 21,0 C 20,0 C 16,8 C 64 % 1005,7 hPa 0,0 l/m 0,00 h 0,00 h 0 W/m 7,5 km/h (2 Bft) 96,66 %
15.07.2023 05:00 20,8 C 19,7 C 16,7 C 64 % 1005,7 hPa 0,0 l/m 0,00 h 0,00 h 7 W/m 6,1 km/h (2 Bft) 97,78 %
15.07.2023 06:00 20,7 C 20,0 C 16,7 C 64 % 1005,7 hPa 0,0 l/m 0,00 h 0,00 h 23 W/m 7,2 km/h (2 Bft) 97,60 %
15.07.2023 07:00 21,2 C 20,7 C 17,0 C 66 % 1005,8 hPa 0,0 l/m 0,00 h 0,00 h 44 W/m 7,2 km/h (2 Bft) 98,44 %
15.07.2023 08:00 23,6 C 26,5 C 19,6 C 62 % 1006,1 hPa 0,0 l/m 0,73 h 0,00 h 298 W/m 12,8 km/h (3 Bft) 96,30 %
15.07.2023 09:00 25,4 C 25,3 C 21,1 C 59 % 1006,1 hPa 0,0 l/m 0,10 h 0,00 h 171 W/m 16,4 km/h (3 Bft) 97,15 %
15.07.2023 10:00 25,7 C 25,4 C 21,2 C 59 % 1006,6 hPa 0,0 l/m 0,00 h 0,00 h 190 W/m 10,6 km/h (2 Bft) 98,37 %
15.07.2023 11:00 24,8 C 23,6 C 19,5 C 69 % 1007,3 hPa 0,0 l/m 0,00 h 0,10 h 73 W/m 19,5 km/h (3 Bft) 97,44 %
15.07.2023 12:00 23,1 C 23,3 C 18,6 C 83 % 1007,2 hPa 0,0 l/m 0,33 h 0,03 h 366 W/m 14,8 km/h (3 Bft) 96,86 %
15.07.2023 13:00 25,2 C 26,4 C 21,6 C 78 % 1007,1 hPa 0,0 l/m 0,47 h 0,00 h 455 W/m 18,2 km/h (3 Bft) 99,29 %
15.07.2023 14:00 24,7 C 25,5 C 20,7 C 80 % 1006,8 hPa 0,0 l/m 0,30 h 0,00 h 418 W/m 17,7 km/h (3 Bft) 95,38 %
15.07.2023 15:00 26,5 C 27,8 C 22,2 C 74 % 1006,3 hPa 0,0 l/m 0,30 h 0,00 h 409 W/m 18,9 km/h (3 Bft) 98,22 %
15.07.2023 16:00 27,0 C 27,9 C 22,6 C 72 % 1006,0 hPa 0,0 l/m 0,30 h 0,00 h 369 W/m 18,7 km/h (3 Bft) 97,86 %
15.07.2023 17:00 27,5 C 29,4 C 23,1 C 64 % 1005,8 hPa 0,0 l/m 0,63 h 0,00 h 451 W/m 22,8 km/h (4 Bft) 97,94 %
15.07.2023 18:00 28,0 C 30,3 C 23,8 C 60 % 1005,7 hPa 0,0 l/m 0,67 h 0,00 h 355 W/m 28,7 km/h (4 Bft) 96,40 %
15.07.2023 19:00 27,3 C 26,8 C 22,5 C 61 % 1005,8 hPa 0,0 l/m 0,17 h 0,17 h 70 W/m 29,8 km/h (5 Bft) 99,85 %
15.07.2023 20:00 24,2 C 21,8 C 18,4 C 74 % 1006,8 hPa 3,8 l/m 0,00 h 0,58 h 16 W/m 27,3 km/h (4 Bft) 99,64 %
15.07.2023 21:00 18,7 C 16,9 C 13,7 C 90 % 1007,4 hPa 0,2 l/m 0,00 h 0,08 h 5 W/m 12,0 km/h (2 Bft) 97,26 %
15.07.2023 22:00 18,2 C 16,8 C 13,0 C 92 % 1007,9 hPa 0,0 l/m 0,00 h 0,00 h 0 W/m 0,5 km/h (0 Bft) 96,94 %
15.07.2023 23:00 17,9 C 16,7 C 12,8 C 94 % 1008,8 hPa 0,0 l/m 0,00 h 0,00 h 0 W/m 1,5 km/h (1 Bft) 96,98 %
16.07.2023 00:00 17,9 C 17,1 C 13,0 C 94 % 1009,2 hPa 0,0 l/m 0,00 h 0,00 h 0 W/m 5,9 km/h (2 Bft) 98,65 %
16.07.2023 01:00 18,3 C 17,6 C 13,9 C 93 % 1009,7 hPa 0,0 l/m 0,00 h 0,03 h 0 W/m 6,7 km/h (2 Bft) 96,73 %
16.07.2023 02:00 18,2 C 17,0 C 13,6 C 94 % 1010,3 hPa 0,0 l/m 0,00 h 0,10 h 0 W/m 7,9 km/h (2 Bft) 97,84 %
16.07.2023 03:00 17,5 C 16,7 C 13,3 C 95 % 1010,4 hPa 0,0 l/m 0,00 h 0,00 h 0 W/m 7,2 km/h (2 Bft) 97,69 %
16.07.2023 04:00 16,9 C 16,0 C 13,2 C 94 % 1010,8 hPa 0,0 l/m 0,00 h 0,00 h 0 W/m 3,5 km/h (1 Bft) 96,93 %
16.07.2023 05:00 16,6 C 16,0 C 13,2 C 92 % 1011,5 hPa 0,0 l/m 0,00 h 0,00 h 7 W/m 11,3 km/h (2 Bft) 96,49 %
16.07.2023 06:00 16,7 C 16,1 C 12,8 C 87 % 1012,1 hPa 0,0 l/m 0,00 h 0,00 h 18 W/m 16,5 km/h (3 Bft) 99,26 %
16.07.2023 07:00 17,1 C 16,6 C 13,4 C 84 % 1012,7 hPa 0,0 l/m 0,00 h 0,00 h 36 W/m 20,4 km/h (4 Bft) 96,58 %
16.07.2023 08:00 18,2 C 20,4 C 14,8 C 77 % 1013,1 hPa 0,0 l/m 0,93 h 0,00 h 339 W/m 26,6 km/h (4 Bft) 97,51 %
16.07.2023 09:00 19,6 C 23,7 C 18,4 C 71 % 1013,4 hPa 0,0 l/m 1,00 h 0,00 h 530 W/m 24,1 km/h (4 Bft) 98,93 %
16.07.2023 10:00 20,6 C 22,1 C 18,3 C 67 % 1013,7 hPa 0,0 l/m 0,80 h 0,00 h 624 W/m 29,9 km/h (5 Bft) 96,99 %
16.07.2023 11:00 21,4 C 22,7 C 18,9 C 65 % 1014,0 hPa 0,0 l/m 0,37 h 0,00 h 421 W/m 26,2 km/h (4 Bft) 97,64 %
16.07.2023 12:00 22,6 C 24,2 C 20,5 C 61 % 1014,2 hPa 0,0 l/m 0,27 h 0,00 h 407 W/m 23,9 km/h (4 Bft) 96,38 %
16.07.2023 13:00 22,6 C 22,7 C 19,1 C 60 % 1014,5 hPa 0,0 l/m 0,07 h 0,00 h 304 W/m 24,5 km/h (4 Bft) 98,43 %
16.07.2023 14:00 23,1 C 24,2 C 19,6 C 60 % 1014,7 hPa 0,0 l/m 0,30 h 0,00 h 471 W/m 23,0 km/h (4 Bft) 98,86 %
16.07.2023 15:00 23,8 C 24,9 C 19,9 C 57 % 1014,9 hPa 0,0 l/m 0,50 h 0,00 h 471 W/m 20,3 km/h (4 Bft) 95,31 %
16.07.2023 16:00 24,8 C 26,2 C 20,7 C 54 % 1014,9 hPa 0,0 l/m 0,50 h 0,00 h 455 W/m 20,7 km/h (4 Bft) 99,00 %
16.07.2023 17:00 24,2 C 24,4 C 20,1 C 55 % 1014,8 hPa 0,0 l/m 0,60 h 0,00 h 314 W/m 21,8 km/h (4 Bft) 98,08 %
16.07.2023 18:00 24,1 C 25,4 C 20,2 C 56 % 1014,7 hPa 0,0 l/m 0,62 h 0,00 h 285 W/m 15,2 km/h (3 Bft) 96,95 %
16.07.2023 19:00 24,1 C 24,4 C 19,9 C 55 % 1014,8 hPa 0,0 l/m 0,77 h 0,00 h 237 W/m 12,7 km/h (3 Bft) 97,57 %
16.07.2023 20:00 23,1 C 22,2 C 18,6 C 57 % 1014,9 hPa 0,0 l/m 0,00 h 0,00 h 51 W/m 9,1 km/h (2 Bft) 97,58 %
16.07.2023 21:00 22,0 C 20,5 C 17,2 C 63 % 1015,3 hPa 0,0 l/m 0,00 h 0,00 h 13 W/m 3,2 km/h (1 Bft) 97,44 %
16.07.2023 22:00 21,0 C 19,7 C 16,2 C 71 % 1015,8 hPa 0,0 l/m 0,00 h 0,00 h 0 W/m 3,9 km/h (1 Bft) 97,16 %
16.07.2023 23:00 20,3 C 18,8 C 15,3 C 73 % 1015,9 hPa 0,0 l/m 0,00 h 0,00 h 0 W/m 0,2 km/h (0 Bft) 97,49 %
Min-Datum _ 14.07.23 14.07.23 14.07.23 14.07.23 15.07.23 - - - - 10.07.23 12.07.23
_ Min-Zeit 05:26 05:08 04:38 17:04 04:58 - - - - 00:34 00:02
Minimum _ 15,1 C 13,9 C 11,1 C 40 % 1005,5 hPa - - - - 0,0 km/h (0 Bft) 14,29 %
Max-Datum _ 11.07.23 11.07.23 11.07.23 10.07.23 10.07.23 15.07.23 11.07.23 12.07.23 14.07.23 15.07.23 12.07.23
_ Max-Zeit 17:26 15:22 12:34 05:32 09:38 20:40 12:58 04:05 14:32 18:34 04:12
Maximum _ 33,8 C 38,3 C 33,9 C 97 % 1022,1 hPa 3,8 l/m 0,08 h 0,08 h 1154 W/m 67,6 km/h
S (8 Bft)
505,36 %
Durchschnitt _ 22,4 C 22,9 C 18,5 C 70 % 1013,7 hPa #9,4 l/m #57:27 h #3:36 h 364 W/m 11,2 km/h (2 Bft) 97,54 %
© 2023 W. Hausmann